Time;durP1;ratioP1;P1;durP2;ratioP2;P2;SDS_P1;SDS_P2;PMS_P1;PMS_P2;Temp;Humidity;BMP_temperature;BMP_pressure;BME280_temperature;BME280_humidity;BME280_pressure;Samples;Min_cycle;Max_cycle;Signal;HPM_P1;HPM_P2
2023/12/27 00:02:02;;;;;;;0.60;0.60;;;2.50;99.90;;;;;;5121383;27;20378;-74
2023/12/27 00:04:27;;;;;;;0.60;0.60;;;2.40;99.90;;;;;;5123105;27;20117;-74
2023/12/27 00:06:55;;;;;;;0.60;0.60;;;2.40;99.90;;;;;;5123725;27;20483;-79
2023/12/27 00:09:20;;;;;;;0.73;0.73;;;2.40;99.90;;;;;;5121668;27;20084;-78
2023/12/27 00:11:46;;;;;;;0.63;0.63;;;2.40;99.90;;;;;;5124079;27;20606;-77
2023/12/27 00:14:12;;;;;;;0.70;0.70;;;2.50;99.90;;;;;;5088319;27;20043;-75
2023/12/27 00:16:37;;;;;;;0.57;0.57;;;2.50;99.90;;;;;;5124535;27;20080;-76
2023/12/27 00:19:03;;;;;;;0.60;0.60;;;2.40;99.90;;;;;;5107827;27;20053;-78
2023/12/27 00:21:29;;;;;;;0.70;0.70;;;2.40;99.90;;;;;;5124477;27;20074;-75
2023/12/27 00:23:55;;;;;;;0.60;0.60;;;2.60;99.90;;;;;;5123084;27;20445;-78
2023/12/27 00:26:20;;;;;;;0.68;0.68;;;2.30;99.90;;;;;;5121940;27;20088;-76
2023/12/27 00:28:46;;;;;;;0.60;0.60;;;2.30;99.90;;;;;;5121345;27;20055;-79
2023/12/27 00:31:12;;;;;;;0.90;0.90;;;2.30;99.90;;;;;;5090324;27;20131;-80
2023/12/27 00:33:38;;;;;;;0.80;0.80;;;2.30;99.90;;;;;;5124760;27;20038;-77
2023/12/27 00:36:04;;;;;;;0.80;0.80;;;2.20;99.90;;;;;;5121346;27;20042;-78
2023/12/27 00:38:29;;;;;;;;;;;2.20;99.90;;;;;;5127129;27;20047;-79
2023/12/27 00:40:55;;;;;;;0.50;0.50;;;2.10;99.90;;;;;;5127775;28;19919;-77
2023/12/27 00:43:21;;;;;;;0.65;0.65;;;2.00;99.90;;;;;;5093554;28;20043;-77
2023/12/27 00:45:46;;;;;;;0.60;0.60;;;2.00;99.90;;;;;;5136216;27;20046;-79
2023/12/27 00:48:12;;;;;;;0.70;0.70;;;1.90;99.90;;;;;;5133882;27;20046;-78
2023/12/27 00:50:38;;;;;;;0.73;0.73;;;1.90;99.90;;;;;;5127631;27;20126;-77
2023/12/27 00:53:03;;;;;;;0.80;0.80;;;1.90;99.90;;;;;;5127943;27;20035;-79
2023/12/27 00:55:29;;;;;;;0.60;0.60;;;1.80;99.90;;;;;;5127719;27;20042;-79
2023/12/27 00:57:55;;;;;;;0.70;0.70;;;1.80;99.90;;;;;;5127096;27;20043;-78
2023/12/27 01:00:20;;;;;;;0.68;0.68;;;1.70;99.90;;;;;;5127767;27;20484;-78
2023/12/27 01:02:46;;;;;;;0.50;0.50;;;1.70;99.90;;;;;;5134190;27;20049;-74
2023/12/27 01:05:12;;;;;;;0.60;0.60;;;1.70;99.90;;;;;;5114160;27;20051;-75
2023/12/27 01:07:38;;;;;;;0.68;0.68;;;1.70;99.90;;;;;;5094447;27;20054;-76
2023/12/27 01:10:05;;;;;;;0.73;0.73;;;1.70;99.90;;;;;;5132631;27;20039;-76
2023/12/27 01:12:30;;;;;;;0.80;0.80;;;1.90;99.90;;;;;;5101012;27;20134;-75
2023/12/27 01:14:56;;;;;;;0.70;0.70;;;2.80;99.90;;;;;;5135080;27;20143;-75
2023/12/27 01:17:22;;;;;;;0.60;0.60;;;2.00;99.90;;;;;;5130637;27;20042;-76
2023/12/27 01:19:47;;;;;;;0.70;0.70;;;1.90;99.90;;;;;;5131097;27;20035;-76
2023/12/27 01:22:13;;;;;;;0.70;0.70;;;1.90;99.90;;;;;;5132886;27;20339;-78
2023/12/27 01:24:39;;;;;;;0.80;0.80;;;1.90;99.90;;;;;;5131176;27;20038;-78
2023/12/27 01:27:04;;;;;;;0.70;0.70;;;3.70;99.90;;;;;;5130791;27;20109;-76
2023/12/27 01:29:30;;;;;;;0.70;0.70;;;1.80;99.90;;;;;;5116351;27;20107;-79
2023/12/27 01:31:56;;;;;;;0.77;0.77;;;1.70;99.90;;;;;;5130986;27;20280;-76
2023/12/27 01:34:21;;;;;;;0.70;0.70;;;1.80;99.90;;;;;;5112583;27;20038;-77
2023/12/27 01:36:47;;;;;;;0.70;0.70;;;1.80;99.90;;;;;;5133818;27;20074;-76
2023/12/27 01:39:13;;;;;;;0.60;0.60;;;1.90;99.90;;;;;;5131738;27;20046;-78
2023/12/27 01:41:39;;;;;;;0.68;0.68;;;2.10;99.90;;;;;;5130500;27;20043;-75
2023/12/27 01:44:04;;;;;;;0.70;0.70;;;1.80;99.90;;;;;;5130811;27;20400;-75
2023/12/27 01:46:30;;;;;;;0.70;0.70;;;1.80;99.90;;;;;;5096826;27;20035;-75
2023/12/27 01:48:57;;;;;;;;;;;1.80;99.90;;;;;;5112480;27;20039;-78
2023/12/27 01:51:22;;;;;;;0.60;0.60;;;1.70;99.90;;;;;;5114118;27;19919;-74
2023/12/27 01:53:49;;;;;;;0.70;0.70;;;1.80;99.90;;;;;;5131435;27;20045;-77
2023/12/27 01:56:15;;;;;;;0.73;0.73;;;1.90;99.90;;;;;;5131408;27;20442;-78
2023/12/27 01:58:41;;;;;;;0.70;0.70;;;1.60;99.90;;;;;;5129925;27;20043;-78
2023/12/27 02:01:06;;;;;;;0.63;0.63;;;1.60;99.90;;;;;;5132464;27;20046;-78
2023/12/27 02:03:32;;;;;;;0.82;0.82;;;1.90;99.90;;;;;;5130040;27;20046;-76
2023/12/27 02:05:59;;;;;;;0.70;0.70;;;1.60;99.90;;;;;;5126738;27;20482;-77
2023/12/27 02:08:26;;;;;;;0.60;0.60;;;1.60;99.90;;;;;;5130490;27;20039;-77
2023/12/27 02:10:51;;;;;;;2.10;2.00;;;1.50;99.90;;;;;;5132427;27;20039;-79
2023/12/27 02:13:17;;;;;;;0.68;0.68;;;3.10;99.90;;;;;;5120629;27;20039;-78
2023/12/27 02:15:43;;;;;;;0.70;0.70;;;1.50;99.90;;;;;;5128564;27;20035;-76
2023/12/27 02:18:10;;;;;;;0.80;0.80;;;1.50;99.90;;;;;;5130365;27;20121;-76
2023/12/27 02:20:36;;;;;;;0.60;0.60;;;1.50;99.90;;;;;;5112216;27;20043;-76
2023/12/27 02:23:07;;;;;;;0.70;0.70;;;1.40;99.90;;;;;;5139276;27;20073;-77
2023/12/27 02:25:32;;;;;;;0.60;0.60;;;1.40;99.90;;;;;;5129282;27;20558;-77
2023/12/27 02:27:58;;;;;;;0.70;0.70;;;1.40;99.90;;;;;;5131228;27;20652;-80
2023/12/27 02:30:24;;;;;;;;;;;1.40;99.90;;;;;;5130548;27;20092;-78
2023/12/27 02:32:50;;;;;;;0.60;0.60;;;1.40;99.90;;;;;;5130990;27;19919;-79
2023/12/27 02:35:17;;;;;;;0.70;0.70;;;1.40;99.90;;;;;;5129206;27;20532;-80
2023/12/27 02:37:43;;;;;;;0.60;0.60;;;1.30;99.90;;;;;;5130091;27;20038;-79
2023/12/27 02:40:09;;;;;;;0.65;0.65;;;1.20;99.90;;;;;;5129365;27;20035;-79
2023/12/27 02:42:36;;;;;;;0.80;0.80;;;1.20;99.90;;;;;;5129446;27;20047;-78
2023/12/27 02:45:02;;;;;;;0.70;0.70;;;1.50;99.90;;;;;;5128397;27;20035;-81
2023/12/27 02:47:28;;;;;;;0.80;0.80;;;1.10;99.90;;;;;;5112528;27;20107;-78
2023/12/27 02:49:54;;;;;;;0.70;0.70;;;1.00;99.90;;;;;;5133914;27;20484;-78
2023/12/27 02:52:19;;;;;;;0.80;0.80;;;1.00;99.90;;;;;;5129362;27;20039;-79
2023/12/27 02:54:45;;;;;;;0.70;0.70;;;1.20;99.90;;;;;;5130536;27;20122;-79
2023/12/27 02:57:12;;;;;;;0.70;0.70;;;0.90;99.90;;;;;;5130392;27;20037;-82
2023/12/27 02:59:37;;;;;;;0.60;0.60;;;0.80;99.90;;;;;;5113858;27;20072;-78
2023/12/27 03:02:03;;;;;;;0.80;0.80;;;0.80;99.90;;;;;;5128473;27;20050;-77
2023/12/27 03:04:29;;;;;;;0.70;0.70;;;0.70;99.90;;;;;;5110885;27;20039;-80
2023/12/27 03:06:54;;;;;;;0.70;0.70;;;0.70;99.90;;;;;;5133075;27;20046;-79
2023/12/27 03:09:20;;;;;;;0.60;0.60;;;0.60;99.90;;;;;;5127140;27;20051;-77
2023/12/27 03:11:45;;;;;;;0.80;0.80;;;0.60;99.90;;;;;;5110171;27;20074;-78
2023/12/27 03:14:11;;;;;;;0.80;0.80;;;0.60;99.90;;;;;;5127269;27;20042;-81
2023/12/27 03:16:37;;;;;;;0.68;0.68;;;0.50;99.90;;;;;;5114891;27;20043;-79
2023/12/27 03:19:03;;;;;;;;;;;0.50;99.90;;;;;;5129208;27;20049;-77
2023/12/27 03:21:28;;;;;;;0.70;0.70;;;0.50;99.90;;;;;;5131780;27;20005;-78
2023/12/27 03:23:54;;;;;;;0.80;0.80;;;0.50;99.90;;;;;;5099935;27;20087;-77
2023/12/27 03:26:20;;;;;;;0.68;0.68;;;0.40;99.90;;;;;;5131677;27;20112;-80
2023/12/27 03:28:45;;;;;;;0.70;0.70;;;0.60;99.90;;;;;;5132032;27;20498;-80
2023/12/27 03:31:13;;;;;;;0.70;0.70;;;0.50;99.90;;;;;;5132833;27;20047;-81
2023/12/27 03:33:38;;;;;;;0.60;0.60;;;0.80;99.90;;;;;;5097368;27;20035;-78
2023/12/27 03:36:05;;;;;;;0.70;0.70;;;0.50;99.90;;;;;;5127467;27;20449;-79
2023/12/27 03:38:30;;;;;;;0.70;0.70;;;0.50;99.90;;;;;;5131601;27;20125;-79
2023/12/27 03:40:56;;;;;;;0.70;0.70;;;0.50;99.90;;;;;;5110172;27;20129;-80
2023/12/27 03:43:22;;;;;;;0.70;0.70;;;0.50;99.90;;;;;;5128783;27;20035;-77
2023/12/27 03:45:50;;;;;;;0.70;0.70;;;0.50;99.90;;;;;;5109394;27;20457;-76
2023/12/27 03:48:16;;;;;;;0.80;0.80;;;0.50;99.90;;;;;;5127846;27;20443;-80
2023/12/27 03:50:42;;;;;;;0.80;0.80;;;0.50;99.90;;;;;;5127162;27;20122;-76
2023/12/27 03:53:07;;;;;;;0.70;0.70;;;0.50;99.90;;;;;;5113507;27;20043;-79
2023/12/27 03:55:33;;;;;;;0.70;0.70;;;0.50;99.90;;;;;;5112737;27;20031;-80
2023/12/27 03:57:59;;;;;;;0.68;0.68;;;0.50;99.90;;;;;;5129570;27;20082;-78
2023/12/27 04:00:25;;;;;;;0.80;0.80;;;0.50;99.90;;;;;;5115875;27;20514;-80
2023/12/27 04:02:51;;;;;;;0.70;0.70;;;0.50;99.90;;;;;;5106435;27;20480;-78
2023/12/27 04:05:17;;;;;;;0.80;0.80;;;0.50;99.90;;;;;;5110329;27;20047;-78
2023/12/27 04:07:43;;;;;;;0.73;0.73;;;0.50;99.90;;;;;;5126723;27;20074;-77
2023/12/27 04:10:08;;;;;;;0.68;0.68;;;0.40;99.90;;;;;;5110103;27;20062;-77
2023/12/27 04:12:35;;;;;;;0.80;0.80;;;0.40;99.90;;;;;;5128691;27;20047;-78
2023/12/27 04:15:00;;;;;;;;;;;0.40;99.90;;;;;;5127996;27;20039;-79
2023/12/27 04:17:26;;;;;;;0.60;0.60;;;0.40;99.90;;;;;;5133688;27;20010;-76
2023/12/27 04:19:52;;;;;;;0.80;0.80;;;0.30;99.90;;;;;;5112400;27;20039;-81
2023/12/27 04:22:17;;;;;;;;;;;0.40;99.90;;;;;;5127432;27;20051;-78
2023/12/27 04:24:43;;;;;;;0.68;0.68;;;0.40;99.90;;;;;;5127113;27;19915;-77
2023/12/27 04:27:09;;;;;;;0.70;0.70;;;0.40;99.90;;;;;;5126733;27;20069;-79
2023/12/27 04:29:35;;;;;;;0.70;0.70;;;0.40;99.90;;;;;;5110367;27;20476;-78
2023/12/27 04:32:00;;;;;;;0.70;0.70;;;0.40;99.90;;;;;;5111816;27;20068;-76
2023/12/27 04:34:26;;;;;;;0.80;0.80;;;0.40;99.90;;;;;;5128570;27;20035;-78
2023/12/27 04:36:51;;;;;;;0.70;0.70;;;0.60;99.90;;;;;;5099898;27;20059;-80
2023/12/27 04:39:17;;;;;;;0.80;0.80;;;0.50;99.90;;;;;;5136571;27;20035;-74
2023/12/27 04:41:43;;;;;;;0.80;0.80;;;0.50;99.90;;;;;;5139347;27;20043;-79
2023/12/27 04:44:08;;;;;;;0.77;0.77;;;0.50;99.90;;;;;;5134442;27;20062;-78
2023/12/27 04:46:37;;;;;;;0.70;0.70;;;0.50;99.90;;;;;;5115561;27;20027;-75
2023/12/27 04:49:08;;;;;;;0.73;0.73;;;0.50;99.90;;;;;;5132839;27;20099;-77
2023/12/27 04:51:34;;;;;;;0.70;0.70;;;0.50;99.90;;;;;;5133655;27;20053;-77
2023/12/27 04:54:02;;;;;;;0.80;0.80;;;0.40;99.90;;;;;;5116500;27;20483;-77
2023/12/27 04:56:28;;;;;;;0.60;0.60;;;0.50;99.90;;;;;;5137380;27;20043;-76
2023/12/27 04:58:54;;;;;;;0.70;0.70;;;0.70;99.90;;;;;;5116200;27;20075;-76
2023/12/27 05:01:20;;;;;;;0.60;0.60;;;0.50;99.90;;;;;;5136799;27;20051;-75
2023/12/27 05:03:45;;;;;;;0.80;0.80;;;0.50;99.90;;;;;;5116404;27;20045;-77
2023/12/27 05:06:12;;;;;;;0.60;0.60;;;0.50;99.90;;;;;;5133941;27;20047;-76
2023/12/27 05:08:41;;;;;;;0.70;0.70;;;0.50;99.90;;;;;;5132531;27;20548;-77
2023/12/27 05:11:15;;;;;;;0.60;0.60;;;0.50;99.90;;;;;;5136852;27;20097;-78
2023/12/27 05:13:41;;;;;;;0.77;0.77;;;0.50;99.90;;;;;;5130698;27;20035;-76
2023/12/27 05:16:11;;;;;;;0.80;0.80;;;0.50;99.90;;;;;;5135500;27;20047;-77
2023/12/27 05:18:38;;;;;;;0.70;0.70;;;0.60;99.90;;;;;;5134889;27;20496;-76
2023/12/27 05:21:04;;;;;;;0.70;0.70;;;0.60;99.90;;;;;;5137621;27;20134;-78
2023/12/27 05:23:30;;;;;;;;;;;0.60;99.90;;;;;;5133941;27;20043;-79
2023/12/27 05:25:56;;;;;;;0.60;0.60;;;0.80;99.90;;;;;;5137753;27;19919;-77
2023/12/27 05:28:23;;;;;;;0.70;0.70;;;0.60;99.90;;;;;;5138102;27;20496;-76
2023/12/27 05:30:49;;;;;;;0.70;0.70;;;0.70;99.90;;;;;;5115822;27;20077;-76
2023/12/27 05:33:15;;;;;;;0.68;0.68;;;0.70;99.90;;;;;;5133736;27;20039;-79
2023/12/27 05:35:42;;;;;;;0.70;0.70;;;0.70;99.90;;;;;;5116630;27;20043;-80
2023/12/27 05:38:07;;;;;;;0.68;0.68;;;0.70;99.90;;;;;;5132881;27;20506;-76
2023/12/27 05:40:33;;;;;;;0.63;0.63;;;0.70;99.90;;;;;;5135503;27;20046;-77
2023/12/27 05:42:59;;;;;;;0.73;0.73;;;0.80;99.90;;;;;;5118495;27;20137;-78
2023/12/27 05:45:24;;;;;;;0.77;0.77;;;0.80;99.90;;;;;;5096575;27;20104;-78
2023/12/27 05:47:51;;;;;;;0.60;0.60;;;0.90;99.90;;;;;;5128829;27;20043;-75
2023/12/27 05:50:17;;;;;;;0.68;0.68;;;0.90;99.90;;;;;;5112602;27;20047;-80
2023/12/27 05:52:43;;;;;;;0.70;0.70;;;0.90;99.90;;;;;;5129575;27;20039;-80
2023/12/27 05:55:09;;;;;;;0.60;0.60;;;0.70;99.90;;;;;;5107790;27;20074;-80
2023/12/27 05:57:34;;;;;;;0.75;0.75;;;0.90;99.90;;;;;;5134469;27;20134;-82
2023/12/27 06:00:00;;;;;;;0.60;0.60;;;0.90;99.90;;;;;;5131761;27;20468;-76
2023/12/27 06:02:26;;;;;;;0.70;0.70;;;0.90;99.90;;;;;;5130430;27;20047;-79
2023/12/27 06:04:51;;;;;;;0.80;0.80;;;0.90;99.90;;;;;;5130332;27;20038;-78
2023/12/27 06:07:17;;;;;;;0.80;0.80;;;0.90;99.90;;;;;;5129376;27;20035;-77
2023/12/27 06:09:43;;;;;;;0.80;0.80;;;0.90;99.90;;;;;;5128750;27;20177;-76
2023/12/27 06:12:08;;;;;;;0.70;0.70;;;2.60;99.90;;;;;;5129316;27;20035;-79
2023/12/27 06:14:35;;;;;;;0.70;0.70;;;1.00;99.90;;;;;;5130927;27;20035;-77
2023/12/27 06:17:01;;;;;;;0.60;0.60;;;1.00;99.90;;;;;;5130212;27;20035;-78
2023/12/27 06:19:28;;;;;;;0.70;0.70;;;1.10;99.90;;;;;;5119705;27;20114;-79
2023/12/27 06:21:53;;;;;;;0.60;0.60;;;1.10;99.90;;;;;;5131188;27;20507;-79
2023/12/27 06:24:19;;;;;;;0.60;0.60;;;1.00;99.90;;;;;;5121077;27;20034;-78
2023/12/27 06:26:45;;;;;;;0.73;0.73;;;1.10;99.90;;;;;;5115343;27;20062;-78
2023/12/27 06:29:11;;;;;;;0.80;0.80;;;1.20;99.90;;;;;;5130152;27;20050;-76
2023/12/27 06:31:36;;;;;;;0.70;0.70;;;1.80;99.90;;;;;;5111789;27;20043;-78
2023/12/27 06:34:02;;;;;;;0.63;0.63;;;1.20;99.90;;;;;;5131008;27;20392;-78
2023/12/27 06:36:28;;;;;;;0.70;0.70;;;1.90;99.90;;;;;;5129437;27;20571;-78
2023/12/27 06:38:54;;;;;;;0.70;0.70;;;2.30;99.90;;;;;;5096532;27;20469;-76
2023/12/27 06:41:19;;;;;;;0.80;0.80;;;1.30;99.90;;;;;;5131636;27;20031;-80
2023/12/27 06:43:45;;;;;;;0.70;0.70;;;1.30;99.90;;;;;;5112042;27;20037;-76
2023/12/27 06:46:11;;;;;;;0.60;0.60;;;1.30;99.90;;;;;;5130525;27;20072;-78
2023/12/27 06:48:37;;;;;;;0.70;0.70;;;1.30;99.90;;;;;;5132712;27;20429;-77
2023/12/27 06:51:06;;;;;;;1.05;1.05;;;1.30;99.90;;;;;;5128569;27;20073;-76
2023/12/27 06:53:33;;;;;;;0.80;0.80;;;1.30;99.90;;;;;;5115935;27;20387;-79
2023/12/27 06:56:02;;;;;;;0.60;0.60;;;1.40;99.90;;;;;;5113587;27;20047;-78
2023/12/27 06:58:28;;;;;;;0.60;0.60;;;1.40;99.90;;;;;;5131196;27;20030;-75
2023/12/27 07:00:53;;;;;;;0.70;0.70;;;1.50;99.90;;;;;;5112103;27;20074;-79
2023/12/27 07:03:19;;;;;;;0.50;0.50;;;1.50;99.90;;;;;;5127694;27;20508;-80
2023/12/27 07:05:45;;;;;;;0.70;0.70;;;1.50;99.90;;;;;;5125861;27;20039;-77
2023/12/27 07:08:10;;;;;;;0.60;0.60;;;1.60;99.90;;;;;;5094527;27;20095;-77
2023/12/27 07:10:36;;;;;;;0.70;0.70;;;1.50;99.90;;;;;;5127806;27;20447;-80
2023/12/27 07:13:03;;;;;;;0.70;0.70;;;1.60;99.90;;;;;;5109274;27;20502;-79
2023/12/27 07:15:29;;;;;;;0.68;0.68;;;1.60;99.90;;;;;;5127396;27;20472;-78
2023/12/27 07:17:55;;;;;;;0.60;0.60;;;1.70;99.90;;;;;;5130218;27;20152;-79
2023/12/27 07:20:21;;;;;;;;;;;1.60;99.90;;;;;;5128704;27;20395;-76
2023/12/27 07:22:47;;;;;;;0.68;0.68;;;1.70;99.90;;;;;;5114198;27;19924;-77
2023/12/27 07:25:13;;;;;;;;;;;1.70;99.90;;;;;;5126236;27;20046;-77
2023/12/27 07:27:38;;;;;;;0.70;0.70;;;1.70;99.90;;;;;;5125121;27;19919;-81
2023/12/27 07:30:05;;;;;;;0.60;0.60;;;1.80;99.90;;;;;;5132188;27;20082;-81
2023/12/27 07:32:30;;;;;;;0.70;0.70;;;1.80;99.90;;;;;;5124659;27;20036;-79
2023/12/27 07:34:57;;;;;;;0.65;0.65;;;1.80;99.90;;;;;;5093518;27;20146;-79
2023/12/27 07:37:24;;;;;;;0.50;0.50;;;1.90;99.90;;;;;;5105187;27;20130;-77
2023/12/27 07:39:49;;;;;;;0.70;0.70;;;1.90;99.90;;;;;;5084041;27;20043;-80
2023/12/27 07:42:16;;;;;;;0.60;0.60;;;2.00;99.90;;;;;;5132764;27;20047;-81
2023/12/27 07:44:42;;;;;;;0.52;0.52;;;2.00;99.90;;;;;;5130758;27;20047;-79
2023/12/27 07:47:07;;;;;;;0.60;0.60;;;2.00;99.90;;;;;;5130445;27;20430;-80
2023/12/27 07:49:33;;;;;;;0.70;0.70;;;2.10;99.90;;;;;;5131181;27;20047;-80
2023/12/27 07:51:59;;;;;;;0.60;0.60;;;2.10;99.90;;;;;;5123526;27;20081;-78
2023/12/27 07:54:25;;;;;;;0.63;0.63;;;2.90;99.90;;;;;;5095658;27;20060;-77
2023/12/27 07:56:51;;;;;;;0.50;0.50;;;2.90;99.90;;;;;;5115955;27;20380;-77
2023/12/27 07:59:17;;;;;;;0.60;0.60;;;2.10;99.90;;;;;;5116856;27;20072;-79
2023/12/27 08:01:43;;;;;;;;;;;3.20;99.90;;;;;;5133949;27;20401;-80
2023/12/27 08:04:09;;;;;;;0.55;0.55;;;2.10;99.90;;;;;;5136255;27;19945;-79
2023/12/27 08:06:35;;;;;;;;;;;2.10;99.90;;;;;;5129996;27;20042;-80
2023/12/27 08:09:01;;;;;;;0.70;0.70;;;2.30;99.90;;;;;;5120826;27;19915;-80
2023/12/27 08:11:26;;;;;;;0.70;0.70;;;2.10;99.90;;;;;;5138436;27;20034;-81
2023/12/27 08:13:52;;;;;;;0.70;0.70;;;2.20;99.90;;;;;;5105100;27;20059;-79
2023/12/27 08:16:18;;;;;;;0.70;0.70;;;3.10;99.90;;;;;;5122390;27;20046;-78
2023/12/27 08:18:44;;;;;;;;;;;2.20;99.90;;;;;;5138227;27;20043;-77
2023/12/27 08:21:09;;;;;;;0.60;0.60;;;2.20;99.90;;;;;;5127720;27;20329;-80
2023/12/27 08:23:38;;;;;;;0.60;0.60;;;2.20;99.90;;;;;;5097459;27;20121;-80
2023/12/27 08:26:07;;;;;;;0.60;0.60;;;2.30;99.90;;;;;;5126200;27;20049;-79
2023/12/27 08:28:35;;;;;;;0.70;0.70;;;2.30;99.90;;;;;;5132008;27;20054;-78
2023/12/27 08:31:04;;;;;;;0.50;0.50;;;2.50;99.90;;;;;;5116393;27;20122;-81
2023/12/27 08:33:38;;;;;;;0.50;0.50;;;2.40;99.90;;;;;;5120185;27;20119;-79
2023/12/27 08:36:04;;;;;;;0.68;0.68;;;2.40;99.90;;;;;;5110898;27;20285;-79
2023/12/27 08:38:31;;;;;;;;;;;2.50;99.90;;;;;;5111665;28;20043;-78
2023/12/27 08:40:56;;;;;;;0.63;0.63;;;2.40;99.90;;;;;;5110773;28;19925;-82
2023/12/27 08:43:27;;;;;;;0.70;0.70;;;2.50;99.90;;;;;;5092623;27;20118;-80
2023/12/27 08:45:53;;;;;;;0.50;0.50;;;3.10;99.90;;;;;;5095142;28;20085;-78
2023/12/27 08:48:19;;;;;;;0.60;0.60;;;2.80;99.90;;;;;;5126292;27;20479;-80
2023/12/27 08:50:45;;;;;;;0.68;0.68;;;3.60;99.90;;;;;;5126545;28;20484;-82
2023/12/27 08:53:11;;;;;;;0.60;0.60;;;3.00;99.90;;;;;;5092891;28;20126;-79
2023/12/27 08:55:37;;;;;;;0.68;0.68;;;2.70;99.90;;;;;;5096497;27;20953;-77
2023/12/27 08:58:03;;;;;;;0.63;0.63;;;2.70;99.90;;;;;;5111791;28;20039;-81
2023/12/27 09:00:29;;;;;;;0.70;0.70;;;3.00;99.90;;;;;;5102348;27;20138;-79
2023/12/27 09:02:56;;;;;;;0.63;0.63;;;2.80;99.90;;;;;;5117042;28;20051;-79
2023/12/27 09:05:21;;;;;;;0.70;0.70;;;3.30;99.90;;;;;;5129098;28;20557;-78
2023/12/27 09:07:47;;;;;;;0.70;0.70;;;3.00;99.90;;;;;;5134428;27;20126;-81
2023/12/27 09:10:13;;;;;;;0.52;0.52;;;3.10;99.90;;;;;;5112517;28;20476;-78
2023/12/27 09:12:38;;;;;;;0.60;0.60;;;2.90;99.90;;;;;;5131805;27;20498;-81
2023/12/27 09:15:08;;;;;;;1.15;0.95;;;3.00;99.90;;;;;;5084237;27;20047;-79
2023/12/27 09:17:34;;;;;;;0.50;0.50;;;3.10;99.90;;;;;;5114783;28;20039;-81
2023/12/27 09:20:00;;;;;;;;;;;3.40;99.90;;;;;;5129064;27;20545;-80
2023/12/27 09:22:26;;;;;;;0.50;0.50;;;3.10;99.90;;;;;;5126201;27;19923;-78
2023/12/27 09:24:51;;;;;;;;;;;3.50;99.90;;;;;;5134855;27;20483;-80
2023/12/27 09:27:17;;;;;;;0.60;0.60;;;3.20;99.90;;;;;;5120407;27;19929;-78
2023/12/27 09:29:46;;;;;;;0.60;0.60;;;3.30;99.90;;;;;;5133468;27;20046;-78
2023/12/27 09:32:12;;;;;;;0.60;0.60;;;3.90;99.90;;;;;;5133934;27;20031;-79
2023/12/27 09:34:38;;;;;;;0.70;0.70;;;3.30;99.90;;;;;;5095604;27;20054;-80
2023/12/27 09:37:04;;;;;;;0.70;0.70;;;3.30;99.90;;;;;;5128681;27;20038;-78
2023/12/27 09:39:30;;;;;;;0.70;0.70;;;3.40;99.90;;;;;;5129669;27;20046;-78
2023/12/27 09:41:56;;;;;;;;;;;3.40;99.90;;;;;;5086077;27;20509;-81
2023/12/27 09:44:21;;;;;;;0.55;0.55;;;3.50;99.90;;;;;;5130826;27;19919;-81
2023/12/27 09:46:47;;;;;;;0.55;0.55;;;3.50;99.90;;;;;;5134577;27;20131;-79
2023/12/27 09:49:13;;;;;;;0.60;0.60;;;3.50;99.90;;;;;;5135417;27;20074;-82
2023/12/27 09:51:46;;;;;;;0.60;0.60;;;3.50;99.90;;;;;;5130121;27;20069;-80
2023/12/27 09:54:14;;;;;;;0.63;0.63;;;4.10;99.90;;;;;;5119904;27;20460;-78
2023/12/27 09:56:40;;;;;;;0.63;0.63;;;3.60;99.90;;;;;;5098168;27;20070;-81
2023/12/27 09:59:07;;;;;;;0.60;0.60;;;3.70;99.90;;;;;;5126583;27;20062;-80
2023/12/27 10:01:38;;;;;;;0.60;0.60;;;3.70;99.90;;;;;;5132630;27;20043;-81
2023/12/27 10:04:26;;;;;;;0.50;0.50;;;3.90;99.90;;;;;;5130720;27;20092;-79
2023/12/27 10:06:53;;;;;;;0.40;0.40;;;3.80;99.90;;;;;;5128702;27;20034;-80
2023/12/27 10:09:19;;;;;;;0.60;0.60;;;3.80;99.90;;;;;;5128335;27;20038;-80
2023/12/27 10:11:45;;;;;;;0.70;0.70;;;4.00;99.90;;;;;;5133706;27;20494;-79
2023/12/27 10:14:11;;;;;;;;;;;3.80;99.90;;;;;;5133892;27;20038;-78
2023/12/27 10:16:38;;;;;;;0.65;0.65;;;3.90;99.90;;;;;;5115518;27;20115;-80
2023/12/27 10:19:04;;;;;;;0.60;0.60;;;4.00;99.90;;;;;;5129965;27;20035;-82
2023/12/27 10:21:39;;;;;;;;;;;4.00;99.90;;;;;;5123571;27;20045;-80
2023/12/27 10:24:05;;;;;;;0.60;0.60;;;4.10;99.90;;;;;;5104336;27;19919;-79
2023/12/27 10:26:31;;;;;;;0.40;0.40;;;4.10;99.90;;;;;;5129245;27;20058;-82
2023/12/27 10:28:57;;;;;;;0.60;0.60;;;4.20;99.90;;;;;;5116930;27;20071;-81
2023/12/27 10:31:24;;;;;;;0.52;0.52;;;4.70;99.90;;;;;;5114533;27;20047;-79
2023/12/27 10:33:51;;;;;;;0.60;0.60;;;4.20;99.90;;;;;;5132027;27;20073;-77
2023/12/27 10:36:17;;;;;;;0.60;0.60;;;4.30;99.90;;;;;;5129627;27;20091;-79
2023/12/27 10:38:45;;;;;;;0.50;0.50;;;4.20;99.90;;;;;;5130218;27;20039;-80
2023/12/27 10:41:10;;;;;;;0.52;0.52;;;4.70;99.90;;;;;;5114294;27;20039;-80
2023/12/27 10:43:36;;;;;;;;;;;4.50;99.90;;;;;;5131619;27;20043;-79
2023/12/27 10:46:09;;;;;;;0.50;0.50;;;4.50;99.90;;;;;;5112875;27;20003;-81
2023/12/27 10:48:39;;;;;;;0.60;0.60;;;;;;;;;;5128149;27;20042;-79
2023/12/27 10:51:06;;;;;;;0.60;0.60;;;4.60;99.90;;;;;;5130256;27;20079;-79
2023/12/27 10:53:34;;;;;;;0.55;0.55;;;4.90;99.90;;;;;;5126963;27;20031;-81
2023/12/27 10:56:04;;;;;;;0.45;0.45;;;4.70;99.90;;;;;;5129384;27;20039;-81
2023/12/27 10:58:31;;;;;;;0.50;0.50;;;4.80;99.90;;;;;;5134511;27;20035;-81
2023/12/27 11:00:58;;;;;;;0.60;0.60;;;4.80;99.90;;;;;;5136716;27;20500;-79
2023/12/27 11:03:25;;;;;;;0.57;0.57;;;4.90;99.90;;;;;;5133354;27;20035;-81
2023/12/27 11:05:52;;;;;;;0.60;0.60;;;4.90;99.90;;;;;;5124437;27;20056;-79
2023/12/27 11:08:18;;;;;;;0.50;0.50;;;4.90;99.90;;;;;;5107054;27;20468;-79
2023/12/27 11:10:45;;;;;;;0.43;0.43;;;5.00;99.90;;;;;;5123294;27;20043;-79
2023/12/27 11:13:12;;;;;;;0.50;0.50;;;5.00;99.90;;;;;;5122944;27;20468;-80
2023/12/27 11:15:44;;;;;;;0.50;0.50;;;5.10;99.90;;;;;;5123917;27;20085;-82
2023/12/27 11:18:11;;;;;;;0.60;0.60;;;5.10;99.90;;;;;;5121537;27;20040;-80
2023/12/27 11:20:40;;;;;;;0.57;0.57;;;5.10;99.90;;;;;;5102962;27;20051;-81
2023/12/27 11:23:06;;;;;;;0.55;0.55;;;5.60;99.90;;;;;;5128947;27;20039;-80
2023/12/27 11:25:32;;;;;;;0.50;0.50;;;5.10;99.90;;;;;;5117711;27;20049;-80
2023/12/27 11:27:59;;;;;;;0.50;0.50;;;5.10;99.90;;;;;;5109558;27;20050;-82
2023/12/27 11:30:28;;;;;;;0.57;0.57;;;5.10;99.90;;;;;;5116876;27;20062;-84
2023/12/27 11:32:54;;;;;;;0.55;0.55;;;5.20;99.90;;;;;;5110204;27;20040;-81
2023/12/27 11:35:32;;;;;;;0.45;0.45;;;5.20;99.90;;;;;;5096804;27;20066;-80
2023/12/27 11:38:20;;;;;;;0.75;0.75;;;5.10;99.90;;;;;;5091248;27;20043;-80
2023/12/27 11:40:55;;;;;;;0.50;0.50;;;5.10;99.90;;;;;;5122690;27;20051;-81
2023/12/27 11:43:46;;;;;;;0.50;0.50;;;6.00;99.90;;;;;;5120786;27;20047;-84
2023/12/27 11:46:13;;;;;;;0.55;0.55;;;5.10;99.90;;;;;;5122036;27;20043;-81
2023/12/27 11:48:38;;;;;;;;;;;5.10;99.90;;;;;;5121947;27;20104;-78
2023/12/27 11:51:23;;;;;;;0.52;0.52;;;5.10;99.90;;;;;;5109173;27;20010;-83
2023/12/27 11:53:51;;;;;;;0.40;0.40;;;5.10;99.90;;;;;;5121114;27;20395;-86
2023/12/27 11:56:17;;;;;;;0.40;0.40;;;5.10;99.90;;;;;;5121724;27;20050;-81
2023/12/27 11:58:44;;;;;;;0.80;0.80;;;5.10;99.90;;;;;;5088754;27;20039;-76
2023/12/27 12:01:30;;;;;;;0.50;0.50;;;5.10;99.90;;;;;;5121245;27;20054;-81
2023/12/27 12:04:37;;;;;;;0.60;0.60;;;5.10;99.90;;;;;;5102519;27;20042;-80
2023/12/27 12:07:21;;;;;;;0.60;0.60;;;5.10;99.90;;;;;;5123597;27;20081;-77
2023/12/27 12:09:47;;;;;;;0.60;0.60;;;5.10;99.90;;;;;;5128620;27;20047;-79
2023/12/27 12:12:18;;;;;;;0.52;0.52;;;5.10;99.90;;;;;;5106247;27;20130;-81
2023/12/27 12:14:44;;;;;;;1.27;1.27;;;5.10;99.90;;;;;;5121737;27;20054;-82
2023/12/27 12:17:10;;;;;;;0.50;0.50;;;5.10;99.90;;;;;;5124584;27;20043;-81
2023/12/27 12:19:36;;;;;;;;;;;5.00;99.90;;;;;;5104960;27;20059;-81
2023/12/27 12:22:03;;;;;;;0.40;0.40;;;5.00;99.90;;;;;;5119757;27;19919;-81
2023/12/27 12:24:28;;;;;;;0.50;0.50;;;5.00;99.90;;;;;;5119390;27;20127;-80
2023/12/27 12:26:56;;;;;;;0.60;0.60;;;5.00;99.90;;;;;;5105323;27;20539;-80
2023/12/27 12:29:26;;;;;;;0.70;0.70;;;5.00;99.90;;;;;;5105709;27;20133;-81
2023/12/27 12:31:54;;;;;;;0.60;0.60;;;5.00;99.90;;;;;;5127243;27;20130;-83
2023/12/27 12:34:21;;;;;;;1.60;1.50;;;4.90;99.90;;;;;;5121618;27;20034;-82
2023/12/27 12:36:47;;;;;;;0.50;0.50;;;4.90;99.90;;;;;;5132633;27;20047;-80
2023/12/27 12:39:16;;;;;;;0.52;0.52;;;5.20;99.90;;;;;;5135640;27;20038;-79
2023/12/27 12:41:43;;;;;;;1.00;1.00;;;4.80;99.90;;;;;;5131391;27;20495;-79
2023/12/27 12:44:12;;;;;;;0.60;0.60;;;5.00;99.90;;;;;;5101164;27;20078;-81
2023/12/27 12:46:39;;;;;;;0.85;0.85;;;4.80;99.90;;;;;;5101345;27;20043;-81
2023/12/27 12:49:06;;;;;;;0.70;0.70;;;3.90;99.90;;;;;;5129625;27;20041;-80
2023/12/27 12:51:32;;;;;;;0.65;0.65;;;4.80;99.90;;;;;;5126838;27;21623;-82
2023/12/27 12:53:58;;;;;;;;;;;4.80;99.90;;;;;;5124354;27;20035;-76
2023/12/27 12:56:24;;;;;;;0.70;0.70;;;5.30;99.90;;;;;;5128032;27;19929;-77
2023/12/27 12:58:50;;;;;;;;;;;4.80;99.90;;;;;;5133205;27;20063;-79
2023/12/27 13:01:16;;;;;;;1.02;1.02;;;5.00;99.90;;;;;;5111190;27;19977;-79